createdAt,value
2018-03-02T00:00:38.271Z,-5.10
2018-03-02T00:03:05.943Z,-5.20
2018-03-02T00:05:33.404Z,-5.20
2018-03-02T00:08:00.891Z,-5.20
2018-03-02T00:10:28.461Z,-5.20
2018-03-02T00:12:56.031Z,-5.30
2018-03-02T00:15:23.500Z,-5.30
2018-03-02T00:17:50.975Z,-5.30
2018-03-02T00:20:18.544Z,-5.30
2018-03-02T00:22:46.005Z,-5.40
2018-03-02T00:25:13.588Z,-5.40
2018-03-02T00:27:41.151Z,-5.50
2018-03-02T00:30:08.728Z,-5.50
2018-03-02T00:32:36.196Z,-5.60
2018-03-02T00:35:03.653Z,-5.60
2018-03-02T00:37:31.127Z,-5.70
2018-03-02T00:39:58.608Z,-5.60
2018-03-02T00:42:26.077Z,-5.60
2018-03-02T00:44:53.547Z,-5.60
2018-03-02T00:47:21.016Z,-5.70
2018-03-02T00:49:48.488Z,-5.70
2018-03-02T00:52:15.952Z,-5.80
2018-03-02T00:54:43.429Z,-5.80
2018-03-02T00:57:10.988Z,-5.80
2018-03-02T00:59:38.452Z,-5.80
2018-03-02T01:02:05.916Z,-5.80
2018-03-02T01:04:33.400Z,-5.80
2018-03-02T01:07:00.860Z,-5.80
2018-03-02T01:09:28.347Z,-5.80
2018-03-02T01:11:55.916Z,-5.80
2018-03-02T01:14:23.375Z,-5.90
2018-03-02T01:16:50.864Z,-5.90
2018-03-02T01:19:18.424Z,-5.90
2018-03-02T01:21:45.888Z,-5.90
2018-03-02T01:24:13.356Z,-5.90
2018-03-02T01:26:40.816Z,-5.90
2018-03-02T01:29:08.280Z,-5.90
2018-03-02T01:31:35.741Z,-5.90
2018-03-02T01:34:03.212Z,-6.00
2018-03-02T01:36:30.696Z,-6.00
2018-03-02T01:38:58.148Z,-6.00
2018-03-02T01:41:25.608Z,-6.00
2018-03-02T01:43:53.126Z,-6.00
2018-03-02T01:46:20.593Z,-6.00
2018-03-02T01:48:48.064Z,-6.00
2018-03-02T01:51:27.391Z,-6.00
2018-03-02T01:53:54.864Z,-6.00
2018-03-02T01:56:22.351Z,-6.10
2018-03-02T01:58:49.812Z,-6.10
2018-03-02T02:01:17.389Z,-6.00
2018-03-02T02:03:44.844Z,-6.10
2018-03-02T02:06:12.312Z,-6.10
2018-03-02T02:08:39.776Z,-6.10
2018-03-02T02:11:07.267Z,-6.10
2018-03-02T02:13:34.836Z,-6.20
2018-03-02T02:16:02.288Z,-6.20
2018-03-02T02:18:29.754Z,-6.20
2018-03-02T02:20:57.212Z,-6.20
2018-03-02T02:23:24.692Z,-6.20
2018-03-02T02:25:52.152Z,-6.30
2018-03-02T02:28:19.660Z,-6.30
2018-03-02T02:30:47.140Z,-6.30
2018-03-02T02:33:14.695Z,-6.30
2018-03-02T02:35:42.158Z,-6.30
2018-03-02T02:38:09.621Z,-6.30
2018-03-02T02:40:37.163Z,-6.40
2018-03-02T02:43:04.837Z,-6.40
2018-03-02T02:45:33.063Z,-6.50
2018-03-02T02:48:00.519Z,-6.50
2018-03-02T02:50:28.023Z,-6.50
2018-03-02T02:52:55.580Z,-6.50
2018-03-02T02:55:23.155Z,-6.50
2018-03-02T02:57:50.629Z,-6.50
2018-03-02T03:00:18.247Z,-6.50
2018-03-02T03:02:46.468Z,-6.50
2018-03-02T03:05:13.957Z,-6.50
2018-03-02T03:07:41.525Z,-6.50
2018-03-02T03:10:08.995Z,-6.60
2018-03-02T03:12:36.463Z,-6.60
2018-03-02T03:15:03.924Z,-6.60
2018-03-02T03:17:31.403Z,-6.60
2018-03-02T03:19:58.864Z,-6.60
2018-03-02T03:22:26.320Z,-6.60
2018-03-02T03:24:53.784Z,-6.60
2018-03-02T03:27:21.284Z,-6.60
2018-03-02T03:29:48.855Z,-6.60
2018-03-02T03:32:16.308Z,-6.60
2018-03-02T03:34:43.771Z,-6.60
2018-03-02T03:37:11.234Z,-6.60
2018-03-02T03:39:38.713Z,-6.60
2018-03-02T03:42:06.167Z,-6.70
2018-03-02T03:44:33.623Z,-6.70
2018-03-02T03:47:01.088Z,-6.70
2018-03-02T03:49:29.308Z,-6.70
2018-03-02T03:51:56.772Z,-6.80
2018-03-02T03:54:24.268Z,-6.80
2018-03-02T03:56:51.837Z,-6.80
2018-03-02T03:59:19.294Z,-6.90
2018-03-02T04:01:46.784Z,-6.90
2018-03-02T04:04:14.241Z,-6.90
2018-03-02T04:06:41.707Z,-6.90
2018-03-02T04:09:09.189Z,-6.90
2018-03-02T04:11:36.652Z,-7.00
2018-03-02T04:14:04.129Z,-7.00
2018-03-02T04:16:31.796Z,-7.00
2018-03-02T04:18:59.371Z,-7.00
2018-03-02T04:21:26.832Z,-7.00
2018-03-02T04:23:54.307Z,-7.10
2018-03-02T04:26:21.764Z,-7.10
2018-03-02T04:28:49.232Z,-7.10
2018-03-02T04:31:16.715Z,-7.10
2018-03-02T04:33:44.172Z,-7.10
2018-03-02T04:36:11.652Z,-7.10
2018-03-02T04:38:39.116Z,-7.10
2018-03-02T04:41:06.597Z,-7.20
2018-03-02T04:43:34.064Z,-7.20
2018-03-02T04:46:01.641Z,-7.20
2018-03-02T04:48:29.103Z,-7.20
2018-03-02T04:50:56.579Z,-7.20
2018-03-02T04:53:24.052Z,-7.20
2018-03-02T04:55:51.615Z,-7.20
2018-03-02T04:58:19.144Z,-7.20
2018-03-02T05:00:46.611Z,-7.20
2018-03-02T05:03:14.859Z,-7.30
2018-03-02T05:05:42.415Z,-7.30
2018-03-02T05:08:09.984Z,-7.30
2018-03-02T05:10:37.509Z,-7.30
2018-03-02T05:13:05.748Z,-7.30
2018-03-02T05:15:33.200Z,-7.30
2018-03-02T05:18:00.660Z,-7.30
2018-03-02T05:20:28.156Z,-7.30
2018-03-02T05:22:55.611Z,-7.40
2018-03-02T05:25:23.182Z,-7.40
2018-03-02T05:27:50.668Z,-7.40
2018-03-02T05:30:18.733Z,-7.50
2018-03-02T05:32:46.219Z,-7.50
2018-03-02T05:35:13.704Z,-7.50
2018-03-02T05:37:41.191Z,-7.50
2018-03-02T05:40:09.417Z,-7.50
2018-03-02T05:42:36.880Z,-7.50
2018-03-02T05:45:04.383Z,-7.50
2018-03-02T05:47:31.959Z,-7.50
2018-03-02T05:49:59.527Z,-7.50
2018-03-02T05:52:26.993Z,-7.50
2018-03-02T05:54:54.444Z,-7.60
2018-03-02T05:57:21.936Z,-7.60
2018-03-02T05:59:49.403Z,-7.60
2018-03-02T06:02:16.888Z,-7.70
2018-03-02T06:04:44.447Z,-7.70
2018-03-02T06:07:11.916Z,-7.70
2018-03-02T06:09:39.388Z,-7.70
2018-03-02T06:12:06.848Z,-7.70
2018-03-02T06:14:34.305Z,-7.70
2018-03-02T06:17:01.797Z,-7.70
2018-03-02T06:19:29.876Z,-7.70
2018-03-02T06:21:57.332Z,-7.70
2018-03-02T06:24:24.795Z,-7.80
2018-03-02T06:26:52.256Z,-7.80
2018-03-02T06:29:19.756Z,-7.80
2018-03-02T06:31:47.228Z,-7.80
2018-03-02T06:34:14.691Z,-7.70
2018-03-02T06:36:42.164Z,-7.70
2018-03-02T06:39:09.666Z,-7.70
2018-03-02T06:41:37.107Z,-7.70
2018-03-02T06:44:04.560Z,-7.70
2018-03-02T06:46:32.045Z,-7.70
2018-03-02T06:48:59.503Z,-7.70
2018-03-02T06:51:26.972Z,-7.70
2018-03-02T06:53:54.432Z,-7.70
2018-03-02T06:56:21.893Z,-7.70
2018-03-02T06:58:49.355Z,-7.70
2018-03-02T07:01:16.864Z,-7.60
2018-03-02T07:03:44.336Z,-7.60
2018-03-02T07:06:11.792Z,-7.50
2018-03-02T07:08:39.247Z,-7.50
2018-03-02T07:11:06.711Z,-7.50
2018-03-02T07:13:34.175Z,-7.40
2018-03-02T07:16:01.644Z,-7.40
2018-03-02T07:18:29.149Z,-7.30
2018-03-02T07:20:56.603Z,-7.30
2018-03-02T07:23:24.107Z,-7.30
2018-03-02T07:25:52.345Z,-7.20
2018-03-02T07:28:19.800Z,-7.30
2018-03-02T07:30:47.316Z,-7.20
2018-03-02T07:33:14.784Z,-7.10
2018-03-02T07:35:42.355Z,-7.10
2018-03-02T07:38:09.823Z,-7.10
2018-03-02T07:40:37.284Z,-7.00
2018-03-02T07:43:04.743Z,-7.00
2018-03-02T07:45:32.203Z,-7.00
2018-03-02T07:47:59.704Z,-7.00
2018-03-02T07:50:27.175Z,-6.90
2018-03-02T07:52:54.631Z,-6.90
2018-03-02T07:55:22.115Z,-6.80
2018-03-02T07:57:49.580Z,-6.70
2018-03-02T08:00:17.055Z,-6.70
2018-03-02T08:02:44.512Z,-6.60
2018-03-02T08:05:11.997Z,-6.60
2018-03-02T08:07:39.568Z,-6.50
2018-03-02T08:10:07.055Z,-6.50
2018-03-02T08:12:34.511Z,-6.40
2018-03-02T08:15:01.984Z,-6.40
2018-03-02T08:17:29.451Z,-6.40
2018-03-02T08:19:56.912Z,-6.30
2018-03-02T08:22:24.383Z,-6.30
2018-03-02T08:24:51.855Z,-6.20
2018-03-02T08:27:19.323Z,-6.10
2018-03-02T08:29:47.154Z,-6.10
2018-03-02T08:32:15.376Z,-5.90
2018-03-02T08:34:42.831Z,-5.90
2018-03-02T08:37:10.296Z,-5.90
2018-03-02T08:39:37.850Z,-5.90
2018-03-02T08:42:06.072Z,-5.80
2018-03-02T08:44:33.556Z,-5.80
2018-03-02T08:47:01.022Z,-5.70
2018-03-02T08:49:28.595Z,-5.70
2018-03-02T08:51:56.062Z,-5.60
2018-03-02T08:54:23.520Z,-5.60
2018-03-02T08:56:51.008Z,-5.50
2018-03-02T08:59:18.576Z,-5.40
2018-03-02T09:01:46.147Z,-5.30
2018-03-02T09:04:13.607Z,-5.20
2018-03-02T09:06:41.075Z,-5.20
2018-03-02T09:09:08.556Z,-5.10
2018-03-02T09:11:36.027Z,-5.00
2018-03-02T09:14:03.484Z,-5.00
2018-03-02T09:16:30.964Z,-4.90
2018-03-02T09:18:58.424Z,-4.80
2018-03-02T09:21:25.904Z,-4.60
2018-03-02T09:23:53.372Z,-4.40
2018-03-02T09:26:20.831Z,-4.40
2018-03-02T09:28:48.297Z,-4.40
2018-03-02T09:31:15.769Z,-4.30
2018-03-02T09:33:43.257Z,-4.20
2018-03-02T09:36:10.723Z,-4.10
2018-03-02T09:38:38.204Z,-4.10
2018-03-02T09:41:05.765Z,-3.90
2018-03-02T09:43:33.244Z,-3.90
2018-03-02T09:46:00.695Z,-3.80
2018-03-02T09:48:28.151Z,-3.60
2018-03-02T09:50:55.627Z,-3.50
2018-03-02T09:53:23.164Z,-3.40
2018-03-02T09:55:51.391Z,-3.40
2018-03-02T09:58:18.927Z,-3.40
2018-03-02T10:00:47.140Z,-3.10
2018-03-02T10:03:14.601Z,-3.20
2018-03-02T10:05:42.081Z,-3.10
2018-03-02T10:08:09.576Z,-3.00
2018-03-02T10:10:37.044Z,-2.80
2018-03-02T10:13:04.606Z,-2.80
2018-03-02T10:15:32.063Z,-2.80
2018-03-02T10:17:59.536Z,-2.80
2018-03-02T10:20:26.992Z,-2.70
2018-03-02T10:22:54.492Z,-2.60
2018-03-02T10:25:22.064Z,-2.60
2018-03-02T10:27:49.535Z,-2.60
2018-03-02T10:30:17.006Z,-2.60
2018-03-02T10:32:44.578Z,-2.60
2018-03-02T10:35:12.027Z,-2.50
2018-03-02T10:37:39.500Z,-2.30
2018-03-02T10:40:06.970Z,-2.30
2018-03-02T10:42:34.423Z,-2.10
2018-03-02T10:45:01.895Z,-2.00
2018-03-02T10:47:29.351Z,-1.90
2018-03-02T10:49:56.812Z,-1.70
2018-03-02T10:52:25.038Z,-1.50
2018-03-02T10:54:52.499Z,-1.50
2018-03-02T10:57:19.976Z,-1.30
2018-03-02T10:59:47.436Z,-1.20
2018-03-02T11:02:20.823Z,-1.10
2018-03-02T11:04:48.359Z,-1.00
2018-03-02T11:07:15.829Z,-0.90
2018-03-02T11:09:43.408Z,-0.80
2018-03-02T11:12:10.947Z,-0.50
2018-03-02T11:14:38.535Z,-0.40
2018-03-02T11:17:05.995Z,-0.20
2018-03-02T11:19:33.459Z,-0.30
2018-03-02T11:22:00.924Z,-0.30
2018-03-02T11:24:28.503Z,-0.30
2018-03-02T11:26:55.955Z,-0.20
2018-03-02T11:29:23.403Z,0.00
2018-03-02T11:31:50.860Z,0.50
2018-03-02T11:34:18.326Z,1.30
2018-03-02T11:36:46.567Z,2.60
2018-03-02T11:39:14.042Z,2.60
2018-03-02T11:41:41.501Z,2.90
2018-03-02T11:44:08.954Z,3.30
2018-03-02T11:46:36.416Z,4.00
2018-03-02T11:49:03.895Z,4.90
2018-03-02T11:51:31.388Z,5.30
2018-03-02T11:53:58.851Z,5.50
2018-03-02T11:56:26.311Z,5.90
2018-03-02T11:58:53.800Z,6.40
2018-03-02T12:01:21.240Z,6.70
2018-03-02T12:03:48.735Z,7.00
2018-03-02T12:06:16.209Z,6.80
2018-03-02T12:08:43.661Z,6.70
2018-03-02T12:11:11.137Z,6.80
2018-03-02T12:13:38.619Z,6.90
2018-03-02T12:16:06.184Z,7.00
2018-03-02T12:18:33.640Z,7.00
2018-03-02T12:21:01.112Z,6.90
2018-03-02T12:23:28.572Z,7.00
2018-03-02T12:25:56.024Z,7.10
2018-03-02T12:28:23.490Z,7.30
2018-03-02T12:30:50.954Z,7.30
2018-03-02T12:33:18.466Z,7.20
2018-03-02T12:35:45.940Z,7.70
2018-03-02T12:38:13.487Z,8.00
2018-03-02T12:40:40.952Z,8.00
2018-03-02T12:43:08.417Z,8.10
2018-03-02T12:45:35.916Z,7.70
2018-03-02T12:48:03.369Z,7.90
2018-03-02T12:50:30.832Z,8.00
2018-03-02T12:52:58.427Z,7.90
2018-03-02T12:55:25.880Z,7.60
2018-03-02T12:57:53.339Z,8.00
2018-03-02T13:00:20.836Z,8.70
2018-03-02T13:02:48.304Z,8.90
2018-03-02T13:05:15.764Z,8.70
2018-03-02T13:07:43.240Z,8.70
2018-03-02T13:10:10.692Z,9.00
2018-03-02T13:12:38.175Z,9.40
2018-03-02T13:15:05.661Z,9.10
2018-03-02T13:17:33.108Z,8.20
2018-03-02T13:20:00.555Z,8.00
2018-03-02T13:22:38.013Z,8.40
2018-03-02T13:25:05.463Z,8.80
2018-03-02T13:27:45.231Z,9.70
2018-03-02T13:30:12.690Z,9.80
2018-03-02T13:32:40.167Z,10.20
2018-03-02T13:35:11.497Z,10.00
2018-03-02T13:37:40.024Z,10.50
2018-03-02T13:40:19.455Z,10.90
2018-03-02T13:42:47.033Z,10.50
2018-03-02T13:45:14.528Z,10.70
2018-03-02T13:50:52.232Z,11.50
2018-03-02T13:53:19.713Z,11.50
2018-03-02T13:55:47.196Z,11.50
2018-03-02T13:58:14.672Z,11.40
2018-03-02T14:00:42.132Z,11.60
2018-03-02T14:03:21.484Z,11.40
2018-03-02T14:05:48.960Z,11.10
2018-03-02T14:08:16.528Z,10.50
2018-03-02T14:10:43.995Z,10.10
2018-03-02T14:13:11.462Z,10.00
2018-03-02T14:15:38.928Z,10.60
2018-03-02T14:18:07.156Z,10.30
2018-03-02T14:20:35.412Z,10.70
2018-03-02T14:23:02.883Z,10.70
2018-03-02T14:25:30.347Z,10.70
2018-03-02T14:27:57.920Z,10.80
2018-03-02T14:30:25.458Z,11.30
2018-03-02T14:32:53.692Z,10.80
2018-03-02T14:35:21.252Z,10.80
2018-03-02T14:37:48.828Z,10.50
2018-03-02T14:40:16.300Z,10.30
2018-03-02T14:42:43.755Z,10.30
2018-03-02T14:45:11.223Z,10.50
2018-03-02T14:47:38.696Z,10.00
2018-03-02T14:50:06.165Z,10.30
2018-03-02T14:52:33.623Z,10.30
2018-03-02T14:55:01.099Z,10.30
2018-03-02T14:57:28.556Z,9.60
2018-03-02T14:59:56.012Z,9.20
2018-03-02T15:02:23.496Z,9.00
2018-03-02T15:04:50.988Z,8.60
2018-03-02T15:07:18.443Z,8.80
2018-03-02T15:09:45.932Z,8.80
2018-03-02T15:12:13.500Z,8.60
2018-03-02T15:14:40.960Z,8.80
2018-03-02T15:17:08.448Z,8.80
2018-03-02T15:19:35.947Z,8.60
2018-03-02T15:22:03.440Z,8.90
2018-03-02T15:24:31.651Z,8.00
2018-03-02T15:26:59.150Z,8.00
2018-03-02T15:29:26.607Z,6.70
2018-03-02T15:31:54.070Z,6.50
2018-03-02T15:34:21.532Z,5.90
2018-03-02T15:36:48.989Z,5.30
2018-03-02T15:39:16.500Z,4.80
2018-03-02T15:41:43.962Z,4.60
2018-03-02T15:44:11.431Z,4.30
2018-03-02T15:46:38.920Z,4.10
2018-03-02T15:49:06.373Z,4.00
2018-03-02T15:51:33.940Z,3.90
2018-03-02T15:54:01.420Z,3.30
2018-03-02T15:56:28.883Z,3.10
2018-03-02T16:01:47.076Z,2.80
2018-03-02T16:04:14.541Z,2.60
2018-03-02T16:06:42.016Z,2.40
2018-03-02T16:09:09.484Z,2.10
2018-03-02T16:11:36.936Z,2.00
2018-03-02T16:14:04.421Z,1.80
2018-03-02T16:16:31.884Z,1.90
2018-03-02T16:18:59.460Z,1.80
2018-03-02T16:21:27.037Z,1.90
2018-03-02T16:23:54.481Z,1.90
2018-03-02T16:26:21.933Z,1.80
2018-03-02T16:28:49.412Z,1.80
2018-03-02T16:31:16.924Z,1.80
2018-03-02T16:33:44.386Z,1.70
2018-03-02T16:36:11.956Z,1.60
2018-03-02T16:38:39.414Z,1.50
2018-03-02T16:41:06.875Z,1.20
2018-03-02T16:43:34.363Z,1.00
2018-03-02T16:46:01.825Z,0.90
2018-03-02T16:48:29.355Z,0.90
2018-03-02T16:50:57.568Z,0.70
2018-03-02T16:53:25.040Z,0.60
2018-03-02T16:55:52.492Z,0.60
2018-03-02T16:58:19.945Z,0.50
2018-03-02T17:00:48.170Z,0.40
2018-03-02T17:03:15.647Z,0.40
2018-03-02T17:05:43.106Z,0.30
2018-03-02T17:08:10.592Z,0.10
2018-03-02T17:10:38.180Z,-0.10
2018-03-02T17:13:07.682Z,-0.10
2018-03-02T17:15:35.136Z,0.00
2018-03-02T17:18:02.623Z,-0.20
2018-03-02T17:20:30.099Z,-0.30
2018-03-02T17:23:00.174Z,-0.40
2018-03-02T17:25:28.512Z,-0.30
2018-03-02T17:27:55.967Z,-0.30
2018-03-02T17:30:23.436Z,-0.20
2018-03-02T17:32:50.929Z,-0.20
2018-03-02T17:35:18.388Z,-0.30
2018-03-02T17:37:45.966Z,-0.40
2018-03-02T17:40:13.469Z,-0.40
2018-03-02T17:42:41.697Z,-0.60
2018-03-02T17:45:09.173Z,-0.60
2018-03-02T17:47:36.640Z,-0.60
2018-03-02T17:50:04.103Z,-0.60
2018-03-02T17:52:31.564Z,-0.60
2018-03-02T17:54:59.078Z,-0.70
2018-03-02T18:03:11.572Z,-0.80
2018-03-02T18:05:39.843Z,-1.20
2018-03-02T18:08:07.417Z,-1.20
2018-03-02T18:10:34.877Z,-1.20
2018-03-02T18:15:53.692Z,-1.30
2018-03-02T18:18:21.150Z,-1.30
2018-03-02T18:20:48.615Z,-1.40
2018-03-02T18:23:16.101Z,-1.40
2018-03-02T18:25:43.689Z,-1.40
2018-03-02T18:28:11.255Z,-1.40
2018-03-02T18:30:38.776Z,-1.40
2018-03-02T18:33:06.444Z,-1.50
2018-03-02T18:35:33.961Z,-1.50
2018-03-02T18:38:01.536Z,-1.50
2018-03-02T18:40:29.004Z,-1.50
2018-03-02T18:42:56.468Z,-1.60
2018-03-02T18:45:24.051Z,-1.60
2018-03-02T18:47:51.819Z,-1.70
2018-03-02T18:50:19.340Z,-1.70
2018-03-02T18:52:46.811Z,-1.60
2018-03-02T18:55:14.325Z,-1.70
2018-03-02T18:57:41.797Z,-1.80
2018-03-02T19:00:09.263Z,-1.70
2018-03-02T19:02:36.723Z,-1.70
2018-03-02T19:05:04.197Z,-1.80
2018-03-02T19:07:31.687Z,-1.80
2018-03-02T19:09:59.141Z,-1.80
2018-03-02T19:12:26.626Z,-1.80
2018-03-02T19:14:54.193Z,-1.80
2018-03-02T19:17:21.656Z,-1.70
2018-03-02T19:19:49.281Z,-1.70
2018-03-02T19:22:17.539Z,-1.80
2018-03-02T19:24:45.154Z,-1.80
2018-03-02T19:27:12.720Z,-1.90
2018-03-02T19:29:40.273Z,-1.80
2018-03-02T19:32:07.956Z,-1.80
2018-03-02T19:34:35.798Z,-1.80
2018-03-02T19:37:03.327Z,-1.80
2018-03-02T19:39:30.982Z,-1.80
2018-03-02T19:41:58.611Z,-1.80
2018-03-02T19:44:26.213Z,-1.90
2018-03-02T19:46:54.524Z,-2.00
2018-03-02T19:49:22.106Z,-2.00
2018-03-02T19:51:49.652Z,-2.00
2018-03-02T19:54:17.947Z,-2.10
2018-03-02T19:56:45.539Z,-2.10
2018-03-02T19:59:13.142Z,-2.10
2018-03-02T20:01:40.712Z,-2.10
2018-03-02T20:04:08.225Z,-2.10
2018-03-02T20:06:36.665Z,-2.10
2018-03-02T20:09:04.187Z,-2.20
2018-03-02T20:11:32.460Z,-2.10
2018-03-02T20:14:00.763Z,-2.20
2018-03-02T20:16:29.060Z,-2.20
2018-03-02T20:18:56.661Z,-2.30
2018-03-02T20:21:24.157Z,-2.20
2018-03-02T20:23:51.808Z,-2.20
2018-03-02T20:26:20.204Z,-2.20
2018-03-02T20:28:47.672Z,-2.30
2018-03-02T20:31:15.137Z,-2.30
2018-03-02T20:33:42.624Z,-2.30
2018-03-02T20:36:10.108Z,-2.30
2018-03-02T20:38:37.572Z,-2.40
2018-03-02T20:41:05.029Z,-2.40
2018-03-02T20:43:32.503Z,-2.40
2018-03-02T20:45:59.977Z,-2.40
2018-03-02T20:48:27.431Z,-2.50
2018-03-02T20:50:54.911Z,-2.50
2018-03-02T20:53:22.504Z,-2.50
2018-03-02T20:55:49.975Z,-2.50
2018-03-02T20:58:17.524Z,-2.50
2018-03-02T21:00:44.992Z,-2.50
2018-03-02T21:03:12.462Z,-2.60
2018-03-02T21:05:39.936Z,-2.60
2018-03-02T21:08:07.436Z,-2.50
2018-03-02T21:10:35.660Z,-2.60
2018-03-02T21:13:03.116Z,-2.60
2018-03-02T21:15:30.636Z,-2.60
2018-03-02T21:17:58.199Z,-2.50
2018-03-02T21:20:25.684Z,-2.50
2018-03-02T21:22:53.149Z,-2.50
2018-03-02T21:25:21.388Z,-2.40
2018-03-02T21:27:48.874Z,-2.40
2018-03-02T21:30:16.327Z,-2.40
2018-03-02T21:32:44.544Z,-2.40
2018-03-02T21:35:12.028Z,-2.40
2018-03-02T21:37:39.495Z,-2.40
2018-03-02T21:40:06.969Z,-2.30
2018-03-02T21:42:34.437Z,-2.30
2018-03-02T21:45:01.918Z,-2.30
2018-03-02T21:47:29.480Z,-2.30
2018-03-02T21:49:56.947Z,-2.30
2018-03-02T21:52:24.411Z,-2.30
2018-03-02T21:54:51.872Z,-2.30
2018-03-02T21:57:19.336Z,-2.20
2018-03-02T21:59:46.796Z,-2.20
2018-03-02T22:02:14.260Z,-2.30
2018-03-02T22:04:41.762Z,-2.30
2018-03-02T22:07:09.253Z,-2.30
2018-03-02T22:09:36.976Z,-2.30
2018-03-02T22:12:04.428Z,-2.30
2018-03-02T22:14:32.666Z,-2.40
2018-03-02T22:17:00.178Z,-2.40
2018-03-02T22:19:27.603Z,-2.40
2018-03-02T22:21:55.074Z,-2.40
2018-03-02T22:24:22.593Z,-2.50
2018-03-02T22:26:50.011Z,-2.60
2018-03-02T22:29:17.476Z,-2.60
2018-03-02T22:31:44.956Z,-2.60
2018-03-02T22:34:12.408Z,-2.60
2018-03-02T22:36:39.891Z,-2.70
2018-03-02T22:39:07.476Z,-2.70
2018-03-02T22:41:35.035Z,-2.70
2018-03-02T22:44:02.511Z,-2.70
2018-03-02T22:46:30.079Z,-2.70
2018-03-02T22:48:57.536Z,-2.70
2018-03-02T22:51:25.004Z,-2.80
2018-03-02T22:53:52.483Z,-2.80
2018-03-02T22:56:19.952Z,-2.80
2018-03-02T22:58:47.524Z,-2.80
2018-03-02T23:01:14.983Z,-2.80
2018-03-02T23:03:42.471Z,-2.70
2018-03-02T23:06:10.135Z,-2.80
2018-03-02T23:08:37.617Z,-2.70
2018-03-02T23:11:05.092Z,-2.70
2018-03-02T23:13:32.555Z,-2.70
2018-03-02T23:16:00.045Z,-2.70
2018-03-02T23:18:28.274Z,-2.60
2018-03-02T23:20:55.773Z,-2.70
2018-03-02T23:23:23.245Z,-2.70
2018-03-02T23:25:50.968Z,-2.70
2018-03-02T23:28:19.191Z,-2.60
2018-03-02T23:30:46.660Z,-2.60
2018-03-02T23:33:14.115Z,-2.70
2018-03-02T23:35:41.584Z,-2.70
2018-03-02T23:38:09.087Z,-2.70
2018-03-02T23:40:36.556Z,-2.70
2018-03-02T23:43:04.023Z,-2.70
2018-03-02T23:45:31.508Z,-2.70
2018-03-02T23:47:58.960Z,-2.70
2018-03-02T23:50:26.892Z,-2.70
2018-03-02T23:52:55.115Z,-2.70
2018-03-02T23:55:22.604Z,-2.80
2018-03-02T23:57:50.088Z,-2.70
